Time;durP1;ratioP1;P1;durP2;ratioP2;P2;SDS_P1;SDS_P2;PMS_P1;PMS_P2;Temp;Humidity;BMP_temperature;BMP_pressure;BME280_temperature;BME280_humidity;BME280_pressure;Samples;Min_cycle;Max_cycle;Signal;HPM_P1;HPM_P2
2023/04/28 00:01:42;;;;;;;3.17;2.97;;;;;;;11.85;51.23;99695.22;5012224;28;20281;-63
2023/04/28 00:04:09;;;;;;;3.37;2.97;;;;;;;11.82;51.24;99686.78;5022172;28;20201;-63
2023/04/28 00:06:36;;;;;;;2.77;2.67;;;;;;;11.92;50.70;99690.72;5031656;28;20252;-63
2023/04/28 00:09:03;;;;;;;3.10;2.90;;;;;;;11.94;50.02;99694.00;5030071;28;20274;-63
2023/04/28 00:11:30;;;;;;;3.67;3.37;;;;;;;11.93;51.03;99692.38;5031661;28;20283;-63
2023/04/28 00:13:58;;;;;;;3.20;2.90;;;;;;;11.86;51.57;99685.38;5031575;28;20228;-63
2023/04/28 00:16:24;;;;;;;4.33;3.13;;;;;;;11.82;51.90;99687.63;5031522;28;20201;-63
2023/04/28 00:18:51;;;;;;;3.30;3.00;;;;;;;11.75;51.54;99683.28;5015378;28;20207;-63
2023/04/28 00:21:18;;;;;;;3.13;2.93;;;;;;;11.76;51.28;99685.75;5011773;28;20197;-63
2023/04/28 00:23:45;;;;;;;3.27;2.70;;;;;;;11.76;50.94;99685.75;5011542;28;20200;-63
2023/04/28 00:26:12;;;;;;;2.93;2.73;;;;;;;11.77;51.18;99684.75;5018930;28;20262;-64
2023/04/28 00:28:38;;;;;;;5.23;3.00;;;;;;;11.89;51.19;99685.81;5017526;28;20669;-64
2023/04/28 00:31:12;;;;;;;3.60;3.40;;;;;;;11.91;50.86;99678.44;5015363;28;20207;-64
2023/04/28 00:33:39;;;;;;;3.00;2.80;;;;;;;11.71;50.34;99682.06;5015441;28;20592;-64
2023/04/28 00:36:06;;;;;;;3.30;3.00;;;;;;;11.78;50.31;99678.38;5015013;28;20691;-64
2023/04/28 00:38:33;;;;;;;4.17;3.00;;;;;;;11.71;49.21;99682.84;5031505;28;20197;-64
2023/04/28 00:41:00;;;;;;;5.83;2.83;;;;;;;11.55;49.57;99683.16;5034686;28;20200;-64
2023/04/28 00:43:27;;;;;;;3.33;2.80;;;;;;;11.50;49.32;99674.97;5034896;28;20202;-63
2023/04/28 00:45:54;;;;;;;2.90;2.70;;;;;;;11.34;49.93;99680.59;5034941;28;20199;-64
2023/04/28 00:48:23;;;;;;;3.63;3.20;;;;;;;11.30;49.93;99678.56;5018880;28;20197;-64
2023/04/28 00:50:51;;;;;;;2.67;2.57;;;;;;;11.35;49.92;99682.22;5014766;28;20196;-69
2023/04/28 00:53:17;;;;;;;3.60;3.37;;;;;;;11.21;50.02;99675.22;5014714;28;20282;-64
2023/04/28 00:55:46;;;;;;;3.27;3.07;;;;;;;11.20;50.53;99678.91;5014685;28;20668;-64
2023/04/28 00:58:13;;;;;;;5.07;2.60;;;;;;;11.14;50.95;99677.00;5027754;28;20223;-64
2023/04/28 01:00:40;;;;;;;4.23;3.70;;;;;;;11.30;51.08;99683.88;5034424;28;20623;-64
2023/04/28 01:03:07;;;;;;;3.60;3.27;;;;;;;11.27;51.08;99684.25;5032657;28;20207;-64
2023/04/28 01:05:36;;;;;;;3.23;2.93;;;;;;;11.20;51.38;99678.91;5014473;28;20250;-64
2023/04/28 01:08:03;;;;;;;4.03;3.40;;;;;;;11.13;51.81;99682.50;5026383;28;20196;-64
2023/04/28 01:10:30;;;;;;;3.07;2.90;;;;;;;10.94;52.47;99684.84;5034531;28;20254;-63
2023/04/28 01:12:56;;;;;;;3.90;3.63;;;;;;;10.88;52.75;99684.81;5034018;28;20222;-66
2023/04/28 01:15:23;;;;;;;3.70;3.50;;;;;;;10.84;53.35;99689.69;5029941;28;20193;-64
2023/04/28 01:17:50;;;;;;;6.10;3.57;;;;;;;10.83;53.50;99692.53;5014134;28;20204;-64
2023/04/28 01:20:17;;;;;;;4.10;3.80;;;;;;;10.90;53.82;99696.03;5014243;28;20257;-64
2023/04/28 01:22:45;;;;;;;3.73;3.53;;;;;;;10.81;54.12;99699.88;5014122;28;20795;-63
2023/04/28 01:25:13;;;;;;;3.87;3.57;;;;;;;10.80;54.09;99690.25;5015561;28;20245;-63
2023/04/28 01:27:39;;;;;;;5.80;3.23;;;;;;;10.80;54.45;99690.25;5033784;28;20203;-63
2023/04/28 01:30:08;;;;;;;3.57;3.37;;;;;;;10.75;54.51;99687.38;5034175;28;20289;-64
2023/04/28 01:32:34;;;;;;;6.50;3.70;;;;;;;10.71;54.69;99684.25;5033611;28;20226;-63
2023/04/28 01:35:01;;;;;;;3.70;3.50;;;;;;;10.68;54.52;99678.50;5033324;28;20198;-66
2023/04/28 01:37:28;;;;;;;4.50;3.40;;;;;;;10.54;54.66;99680.22;5017378;28;20255;-63
2023/04/28 01:39:54;;;;;;;3.57;3.27;;;;;;;10.48;54.89;99674.84;5033973;28;20199;-63
2023/04/28 01:42:23;;;;;;;4.00;3.43;;;;;;;10.43;54.74;99690.53;5033660;28;20249;-64
2023/04/28 01:44:49;;;;;;;4.73;3.30;;;;;;;10.35;55.06;99688.03;5034074;28;20629;-63
2023/04/28 01:47:16;;;;;;;3.77;3.57;;;;;;;10.31;55.37;99686.75;5014409;28;20201;-63
2023/04/28 01:49:43;;;;;;;3.53;3.20;;;;;;;10.32;55.17;99688.38;5013707;28;20199;-62
2023/04/28 01:52:09;;;;;;;3.90;3.50;;;;;;;10.22;55.47;99698.50;5013534;28;20626;-63
2023/04/28 01:54:36;;;;;;;3.80;3.50;;;;;;;10.04;56.25;99695.41;5013787;28;20301;-63
2023/04/28 01:57:03;;;;;;;3.30;3.10;;;;;;;10.05;56.26;99697.09;5029440;28;20197;-64
2023/04/28 01:59:31;;;;;;;6.03;3.60;;;;;;;10.11;55.21;99697.19;5033218;28;20197;-64
2023/04/28 02:01:57;;;;;;;4.10;3.40;;;;;;;10.03;55.58;99696.44;5033460;28;20256;-64
2023/04/28 02:04:24;;;;;;;3.67;2.97;;;;;;;9.90;56.33;99693.63;5021138;28;20249;-64
2023/04/28 02:06:51;;;;;;;4.60;3.93;;;;;;;9.84;56.46;99697.00;5027569;28;20241;-63
2023/04/28 02:09:17;;;;;;;4.23;3.93;;;;;;;9.77;56.57;99701.44;5033077;28;20217;-64
2023/04/28 02:11:44;;;;;;;3.93;3.70;;;;;;;9.78;56.19;99711.03;5033327;28;20256;-64
2023/04/28 02:14:10;;;;;;;5.03;4.43;;;;;;;9.76;56.27;99716.53;5033185;28;20226;-64
2023/04/28 02:16:38;;;;;;;4.33;3.93;;;;;;;9.69;55.88;99714.81;5032261;28;20267;-64
2023/04/28 02:19:05;;;;;;;4.00;3.80;;;;;;;9.68;56.82;99716.63;5032932;28;20194;-64
2023/04/28 02:21:32;;;;;;;3.83;3.53;;;;;;;9.66;56.67;99708.03;5033215;28;20189;-63
2023/04/28 02:23:59;;;;;;;4.10;3.80;;;;;;;9.64;56.65;99719.84;5028176;28;20202;-64
2023/04/28 02:26:25;;;;;;;4.63;4.17;;;;;;;9.62;56.16;99717.38;5013600;28;20609;-63
2023/04/28 02:28:52;;;;;;;4.27;3.90;;;;;;;9.51;57.21;99727.59;5013007;28;20288;-63
2023/04/28 02:31:19;;;;;;;5.07;4.57;;;;;;;9.49;56.60;99733.09;5013176;28;20194;-66
2023/04/28 02:33:47;;;;;;;6.07;3.90;;;;;;;9.53;57.11;99728.25;5014596;28;20310;-64
2023/04/28 02:36:15;;;;;;;4.23;3.80;;;;;;;9.46;57.01;99732.63;5032896;28;20197;-63
2023/04/28 02:38:42;;;;;;;7.33;4.03;;;;;;;9.36;57.01;99735.56;5032400;28;20252;-63
2023/04/28 02:41:09;;;;;;;7.77;3.70;;;;;;;9.28;56.46;99740.13;5032493;28;20657;-63
2023/04/28 02:43:36;;;;;;;3.80;3.53;;;;;;;9.29;56.83;99733.81;5031645;28;20283;-69
2023/04/28 02:46:03;;;;;;;4.13;3.93;;;;;;;9.15;56.40;99724.03;5032301;28;20236;-64
2023/04/28 02:48:30;;;;;;;4.97;3.17;;;;;;;9.23;56.92;99739.88;5032533;28;20572;-63
2023/04/28 02:50:58;;;;;;;5.17;3.70;;;;;;;9.22;56.34;99738.19;5032302;28;20247;-66
2023/04/28 02:53:25;;;;;;;2.90;2.70;;;;;;;9.19;56.52;99735.94;5032107;28;20646;-63
2023/04/28 02:55:52;;;;;;;3.47;3.20;;;;;;;9.15;56.73;99732.00;5013372;28;20272;-62
2023/04/28 02:58:18;;;;;;;2.90;2.70;;;;;;;9.08;56.51;99729.25;5012391;28;20194;-61
2023/04/28 03:00:45;;;;;;;2.93;2.70;;;;;;;9.07;56.91;99735.53;5012856;28;20198;-61
2023/04/28 03:03:12;;;;;;;3.97;3.03;;;;;;;9.00;56.48;99731.97;5019830;28;20251;-61
2023/04/28 03:05:39;;;;;;;2.97;2.83;;;;;;;8.97;56.97;99727.03;5012774;28;20201;-61
2023/04/28 03:08:07;;;;;;;6.40;2.97;;;;;;;8.87;56.70;99738.88;5012218;28;20670;-61
2023/04/28 03:10:33;;;;;;;4.60;3.23;;;;;;;8.84;56.79;99732.13;5012728;28;20198;-62
2023/04/28 03:13:00;;;;;;;3.83;2.90;;;;;;;8.92;56.40;99740.00;5018430;28;20205;-63
2023/04/28 03:15:27;;;;;;;3.53;3.27;;;;;;;8.90;56.17;99736.69;5032003;28;20197;-62
2023/04/28 03:17:54;;;;;;;3.87;3.40;;;;;;;8.93;56.17;99735.50;5032190;28;20247;-60
2023/04/28 03:20:20;;;;;;;5.10;3.10;;;;;;;8.86;56.38;99739.88;5032171;28;20189;-61
2023/04/28 03:22:47;;;;;;;3.70;2.87;;;;;;;8.85;56.09;99740.88;5026684;28;20256;-60
2023/04/28 03:25:15;;;;;;;3.53;3.27;;;;;;;8.87;56.19;99741.53;5012633;28;20263;-61
2023/04/28 03:27:42;;;;;;;6.40;3.33;;;;;;;8.81;55.93;99743.06;5012145;28;20256;-62
2023/04/28 03:30:09;;;;;;;3.60;3.30;;;;;;;8.85;56.31;99754.09;5012297;28;20256;-62
2023/04/28 03:32:36;;;;;;;13.60;6.73;;;;;;;8.92;55.56;99755.06;5014638;28;20247;-62
2023/04/28 03:35:03;;;;;;;7.37;3.47;;;;;;;8.96;55.34;99769.59;5031595;28;20290;-62
2023/04/28 03:37:29;;;;;;;3.87;3.30;;;;;;;9.10;55.04;99774.09;5032015;28;20247;-63
2023/04/28 03:39:56;;;;;;;4.47;2.83;;;;;;;9.10;54.67;99784.69;5031940;28;20254;-62
2023/04/28 03:42:24;;;;;;;3.50;3.20;;;;;;;9.16;54.18;99783.97;5029200;28;20260;-63
2023/04/28 03:44:51;;;;;;;3.40;2.63;;;;;;;9.34;54.29;99792.41;5031432;28;20673;-63
2023/04/28 03:47:17;;;;;;;3.20;2.90;;;;;;;9.53;52.61;99794.53;5031653;28;20734;-64
2023/04/28 03:49:44;;;;;;;3.17;2.97;;;;;;;9.89;51.88;99806.06;5031332;28;20247;-63
2023/04/28 03:52:11;;;;;;;4.30;3.33;;;;;;;10.52;50.91;99807.09;5026286;28;20221;-64
2023/04/28 03:54:37;;;;;;;4.03;3.10;;;;;;;11.05;48.78;99808.41;5011630;28;20276;-70
2023/04/28 03:57:04;;;;;;;4.10;2.70;;;;;;;11.41;47.28;99825.09;5011809;28;20639;-63
2023/04/28 03:59:32;;;;;;;2.90;2.60;;;;;;;11.87;45.95;99820.94;5011713;28;20191;-62
2023/04/28 04:01:59;;;;;;;3.87;2.87;;;;;;;12.03;44.70;99830.41;5013201;28;20253;-62
2023/04/28 04:04:26;;;;;;;2.77;2.60;;;;;;;12.46;43.29;99830.00;5022781;28;20200;-62
2023/04/28 04:06:53;;;;;;;6.13;3.30;;;;;;;12.95;42.53;99838.53;5017488;28;20197;-62
2023/04/28 04:09:19;;;;;;;8.90;2.87;;;;;;;13.29;41.40;99838.41;5034952;28;20191;-63
2023/04/28 04:11:46;;;;;;;10.07;3.53;;;;;;;13.59;40.81;99833.47;5034642;28;20566;-63
2023/04/28 04:14:13;;;;;;;17.53;4.67;;;;;;;14.08;39.94;99836.44;5034128;28;20221;-62
2023/04/28 04:16:41;;;;;;;3.47;2.87;;;;;;;14.20;38.62;99851.63;5034734;28;20194;-63
2023/04/28 04:19:07;;;;;;;2.83;2.23;;;;;;;14.70;38.44;99858.84;5035381;28;20225;-62
2023/04/28 04:21:34;;;;;;;2.73;2.10;;;;;;;15.34;36.66;99855.97;5035171;28;20566;-62
2023/04/28 04:24:01;;;;;;;3.60;2.30;;;;;;;15.73;36.13;99856.47;5016452;28;20212;-62
2023/04/28 04:26:28;;;;;;;4.33;2.90;;;;;;;16.07;35.48;99863.16;5015546;28;20189;-62
2023/04/28 04:28:54;;;;;;;5.73;2.83;;;;;;;16.24;34.71;99861.53;5015126;28;20234;-63
2023/04/28 04:31:21;;;;;;;7.77;2.97;;;;;;;16.37;34.70;99869.41;5015106;28;20574;-62
2023/04/28 04:33:49;;;;;;;7.93;3.30;;;;;;;16.74;33.21;99868.38;5030262;28;20708;-62
2023/04/28 04:36:16;;;;;;;3.10;2.87;;;;;;;16.87;33.56;99864.72;5034812;28;20247;-63
2023/04/28 04:38:43;;;;;;;5.23;2.70;;;;;;;16.78;32.97;99871.44;5035072;28;20194;-64
2023/04/28 04:41:09;;;;;;;12.50;3.30;;;;;;;16.46;33.40;99870.78;5026519;28;20190;-64
2023/04/28 04:43:36;;;;;;;30.13;4.23;;;;;;;16.34;33.91;99874.41;5014703;28;20190;-64
2023/04/28 04:46:03;;;;;;;21.10;3.40;;;;;;;16.26;34.17;99866.69;5014894;28;20670;-64
2023/04/28 04:48:30;;;;;;;3.73;2.67;;;;;;;16.36;33.72;99875.84;5014707;28;20201;-65
2023/04/28 04:50:58;;;;;;;7.33;2.60;;;;;;;16.33;33.93;99876.28;5020183;28;20193;-64
2023/04/28 04:53:24;;;;;;;11.27;3.10;;;;;;;16.48;33.32;99883.97;5034405;28;20751;-66
2023/04/28 04:55:51;;;;;;;43.23;6.30;;;;;;;17.22;33.84;99887.09;5034503;28;20278;-66
2023/04/28 04:58:18;;;;;;;10.97;2.70;;;;;;;17.48;32.54;99895.59;5034748;28;20193;-64
2023/04/28 05:00:45;;;;;;;30.33;4.67;;;;;;;17.53;33.13;99895.75;5017355;28;20206;-65
2023/04/28 05:03:11;;;;;;;6.13;2.40;;;;;;;17.79;35.14;99895.31;5034504;28;20196;-64
2023/04/28 05:05:38;;;;;;;12.90;2.60;;;;;;;18.72;36.29;99899.59;5034494;28;20225;-65
2023/04/28 05:08:07;;;;;;;5.67;2.60;;;;;;;19.30;29.63;99910.13;5031722;28;20221;-65
2023/04/28 05:10:33;;;;;;;7.43;2.67;;;;;;;19.71;29.87;99915.16;5023751;28;20439;-66
2023/04/28 05:13:00;;;;;;;5.17;2.30;;;;;;;19.91;30.46;99915.50;5031102;28;20258;-67
2023/04/28 05:15:27;;;;;;;9.43;3.13;;;;;;;20.53;28.52;99914.28;5034413;28;20289;-65
2023/04/28 05:17:54;;;;;;;6.57;2.13;;;;;;;20.26;28.05;99914.19;5033284;28;20249;-66
2023/04/28 05:20:21;;;;;;;12.23;2.60;;;;;;;20.19;28.34;99910.84;5033880;28;20200;-67
2023/04/28 05:22:48;;;;;;;14.00;2.90;;;;;;;19.45;28.45;99921.19;5034150;28;20740;-66
2023/04/28 05:25:16;;;;;;;13.13;3.17;;;;;;;19.61;28.93;99910.41;5034301;28;20205;-67
2023/04/28 05:27:43;;;;;;;12.63;2.50;;;;;;;19.36;29.01;99911.88;5027821;28;20202;-68
2023/04/28 05:30:10;;;;;;;10.20;2.73;;;;;;;19.20;29.30;99918.03;5013904;28;20203;-68
2023/04/28 05:32:37;;;;;;;4.93;2.57;;;;;;;19.12;29.46;99916.50;5013833;28;20253;-66
2023/04/28 05:35:05;;;;;;;4.40;2.20;;;;;;;18.63;29.97;99919.81;5024391;28;20266;-64
2023/04/28 05:37:31;;;;;;;23.53;4.70;;;;;;;17.94;30.58;99916.34;5033242;28;20615;-66
2023/04/28 05:39:58;;;;;;;6.27;3.20;;;;;;;18.04;31.01;99917.41;5033868;28;20247;-66
2023/04/28 05:42:26;;;;;;;10.63;2.60;;;;;;;19.00;33.35;99923.84;5032616;28;20197;-68
2023/04/28 05:44:53;;;;;;;2.63;2.30;;;;;;;18.77;29.21;99931.16;5025021;28;20243;-68
2023/04/28 05:47:20;;;;;;;7.70;2.87;;;;;;;17.92;30.41;99929.22;5023867;28;20322;-70
2023/04/28 05:49:46;;;;;;;77.00;8.13;;;;;;;18.03;30.51;99936.47;5013484;28;20197;-67
2023/04/28 05:52:13;;;;;;;7.53;2.67;;;;;;;18.07;30.50;99934.94;5012354;28;20672;-67
2023/04/28 05:54:40;;;;;;;7.77;2.90;;;;;;;18.59;29.83;99942.88;5013362;28;20229;-67
2023/04/28 05:57:07;;;;;;;8.03;2.77;;;;;;;18.65;29.88;99938.44;5013924;28;20204;-67
2023/04/28 05:59:35;;;;;;;13.23;2.90;;;;;;;18.77;31.67;99934.69;5023134;28;20198;-68
2023/04/28 06:02:02;;;;;;;91.27;9.33;;;;;;;19.10;30.13;99945.56;5031474;28;20183;-70
2023/04/28 06:04:29;;;;;;;47.27;5.47;;;;;;;18.89;29.53;99953.47;5020987;28;20256;-70
2023/04/28 06:06:55;;;;;;;6.33;2.50;;;;;;;18.55;29.64;99947.13;5018974;28;20264;-68
2023/04/28 06:09:22;;;;;;;11.60;2.67;;;;;;;19.48;29.48;99943.06;5021012;28;20251;-74
2023/04/28 06:11:49;;;;;;;4.23;2.40;;;;;;;20.24;27.74;99943.31;5014462;28;20237;-69
2023/04/28 06:14:16;;;;;;;5.27;2.47;;;;;;;19.93;27.79;99948.44;5011230;28;20292;-68
2023/04/28 06:16:44;;;;;;;5.27;2.70;;;;;;;20.17;28.96;99947.22;5023061;28;20199;-72
2023/04/28 06:19:11;;;;;;;5.67;2.40;;;;;;;19.55;28.22;99942.94;5031566;28;20316;-73
2023/04/28 06:21:37;;;;;;;6.57;2.50;;;;;;;19.94;28.03;99942.78;5029828;28;20200;-71
2023/04/28 06:24:04;;;;;;;195.53;16.53;;;;;;;19.67;31.05;99946.38;5010705;28;20253;-69
2023/04/28 06:26:31;;;;;;;17.80;2.70;;;;;;;19.78;28.46;99953.56;5010626;28;21129;-70
2023/04/28 06:28:58;;;;;;;17.20;3.43;;;;;;;19.20;29.35;99939.56;5021494;28;20284;-73
2023/04/28 06:31:24;;;;;;;4.67;2.40;;;;;;;18.94;29.70;99946.31;5029928;28;20659;-72
2023/04/28 06:33:52;;;;;;;5.73;2.57;;;;;;;18.71;30.26;99940.19;5031136;28;20189;-72
2023/04/28 06:36:19;;;;;;;14.30;3.17;;;;;;;19.98;29.92;99943.13;5030165;28;20584;-72
2023/04/28 06:38:46;;;;;;;31.43;3.73;;;;;;;20.78;28.54;99946.19;5030730;28;20266;-70
2023/04/28 06:41:13;;;;;;;28.13;3.80;;;;;;;21.40;29.98;99936.69;5027625;28;20259;-70
2023/04/28 06:43:40;;;;;;;10.00;2.53;;;;;;;21.42;27.06;99951.56;5031008;28;20573;-68
2023/04/28 06:46:06;;;;;;;7.43;2.00;;;;;;;21.18;29.13;99947.50;5031565;28;20262;-67
2023/04/28 06:48:33;;;;;;;4.47;2.63;;;;;;;21.26;27.45;99949.78;5025149;28;20205;-75
2023/04/28 06:51:01;;;;;;;7.73;2.70;;;;;;;20.90;27.71;99947.69;5023681;28;20734;-73
2023/04/28 06:53:28;;;;;;;103.80;11.87;;;;;;;20.35;27.69;99945.06;5015556;28;20240;-70
2023/04/28 06:55:55;;;;;;;16.90;3.23;;;;;;;19.74;30.47;99947.88;5013329;28;20767;-70
2023/04/28 06:58:22;;;;;;;9.00;2.23;;;;;;;20.35;30.70;99946.97;5024700;28;20275;-70
2023/04/28 07:00:49;;;;;;;6.83;2.13;;;;;;;20.38;28.50;99941.06;5029210;28;20189;-72
2023/04/28 07:03:16;;;;;;;7.63;2.00;;;;;;;21.07;29.18;99943.06;5026701;28;20229;-69
2023/04/28 07:05:42;;;;;;;3.53;1.90;;;;;;;21.90;27.44;99951.50;5022497;28;20193;-68
2023/04/28 07:08:10;;;;;;;109.87;8.10;;;;;;;21.95;25.98;99951.53;5031751;28;20580;-71
2023/04/28 07:10:37;;;;;;;5.03;2.40;;;;;;;21.54;26.00;99948.69;5031452;28;20255;-70
2023/04/28 07:13:04;;;;;;;2.30;2.10;;;;;;;21.22;26.20;99939.72;5030222;28;20263;-71
2023/04/28 07:15:31;;;;;;;12.40;3.27;;;;;;;21.17;26.39;99945.06;5021345;28;20276;-70
2023/04/28 07:17:57;;;;;;;8.17;2.23;;;;;;;21.34;26.50;99943.91;5013503;28;20200;-71
2023/04/28 07:20:24;;;;;;;6.20;2.23;;;;;;;21.38;26.07;99939.63;5029654;28;20193;-70
2023/04/28 07:22:51;;;;;;;6.77;2.33;;;;;;;20.95;26.43;99942.38;5022109;28;20670;-70
2023/04/28 07:25:20;;;;;;;2.77;2.00;;;;;;;20.99;26.79;99946.22;5011540;28;20673;-71
2023/04/28 07:27:47;;;;;;;111.83;11.13;;;;;;;20.99;27.34;99940.00;5023412;28;20255;-72
2023/04/28 07:30:14;;;;;;;36.77;4.07;;;;;;;21.22;25.54;99945.94;5031430;28;20189;-71
2023/04/28 07:32:40;;;;;;;18.40;2.73;;;;;;;20.88;26.85;99952.53;5030605;28;20665;-70
2023/04/28 07:35:08;;;;;;;3.43;1.57;;;;;;;21.04;26.20;99943.59;5030926;28;20217;-71
2023/04/28 07:37:34;;;;;;;35.43;4.77;;;;;;;20.86;28.24;99938.47;5032481;28;20189;-71
2023/04/28 07:40:01;;;;;;;5.07;2.30;;;;;;;21.47;26.74;99932.69;5017703;28;20204;-72
2023/04/28 07:42:29;;;;;;;2.30;2.10;;;;;;;21.81;25.95;99936.81;5017321;28;20260;-71
2023/04/28 07:44:57;;;;;;;4.10;1.87;;;;;;;22.02;26.97;99929.69;5027172;28;20213;-70
2023/04/28 07:47:24;;;;;;;74.07;8.73;;;;;;;22.52;26.19;99917.31;5038134;28;20193;-70
2023/04/28 07:49:50;;;;;;;7.47;2.40;;;;;;;22.69;25.66;99936.91;5028318;28;20198;-72
2023/04/28 07:52:17;;;;;;;7.80;2.70;;;;;;;22.63;25.24;99943.38;5016647;28;20271;-70
2023/04/28 07:54:44;;;;;;;2.83;1.97;;;;;;;22.35;25.59;99935.59;5017623;28;20580;-73
2023/04/28 07:57:11;;;;;;;5.50;2.20;;;;;;;22.00;25.59;99927.22;5025905;28;20604;-71
2023/04/28 07:59:39;;;;;;;7.37;2.73;;;;;;;22.24;27.27;99917.66;5016922;28;20194;-72
2023/04/28 08:02:06;;;;;;;9.40;3.03;;;;;;;22.01;25.64;99923.44;5017327;28;20195;-71
2023/04/28 08:04:33;;;;;;;9.13;3.07;;;;;;;22.38;26.63;99918.00;5017686;28;20194;-69
2023/04/28 08:07:00;;;;;;;8.90;2.20;;;;;;;22.27;25.31;99919.84;5023634;28;20747;-72
2023/04/28 08:09:27;;;;;;;3.93;2.20;;;;;;;22.54;26.21;99925.97;5027654;28;20190;-70
2023/04/28 08:11:54;;;;;;;10.80;2.50;;;;;;;22.84;26.57;99917.19;5017153;28;20252;-69
2023/04/28 08:14:21;;;;;;;24.70;3.40;;;;;;;23.43;24.97;99924.69;5016163;28;20586;-70
2023/04/28 08:16:49;;;;;;;15.30;2.97;;;;;;;23.37;24.94;99912.22;5017370;28;20319;-68
2023/04/28 08:19:16;;;;;;;27.43;4.00;;;;;;;23.58;24.04;99913.88;5033936;28;20195;-68
2023/04/28 08:21:42;;;;;;;6.30;2.07;;;;;;;23.85;25.75;99916.31;5035579;28;20192;-69
2023/04/28 08:24:09;;;;;;;3.43;2.17;;;;;;;24.13;23.27;99922.00;5036918;28;20263;-70
2023/04/28 08:26:36;;;;;;;7.20;2.30;;;;;;;23.70;24.00;99922.56;5036657;28;20203;-72
2023/04/28 08:29:03;;;;;;;11.00;2.20;;;;;;;23.89;23.74;99903.84;5020176;28;20231;-70
2023/04/28 08:31:30;;;;;;;2.97;1.87;;;;;;;24.05;24.05;99898.13;5024956;28;21117;-71
2023/04/28 08:33:58;;;;;;;2.47;2.27;;;;;;;23.90;23.38;99917.13;5018003;28;20254;-72
2023/04/28 08:36:30;;;;;;;3.40;3.00;;;;;;;23.69;24.17;99910.06;5016645;28;20220;-72
2023/04/28 08:38:58;;;;;;;16.27;3.07;;;;;;;24.07;25.52;99893.25;5016686;28;20197;-72
2023/04/28 08:41:26;;;;;;;401.17;32.83;;;;;;;24.19;24.80;99903.81;5015524;28;20665;-73
2023/04/28 08:43:53;;;;;;;7.47;2.67;;;;;;;23.78;24.87;99875.91;5017898;28;20205;-67
2023/04/28 08:46:21;;;;;;;10.10;2.57;;;;;;;24.37;24.90;99904.06;5032802;28;20630;-71
2023/04/28 08:48:49;;;;;;;4.53;2.37;;;;;;;25.04;24.01;99895.41;5034179;28;20264;-72
2023/04/28 08:51:28;;;;;;;12.60;2.80;;;;;;;24.54;22.79;99896.38;5013706;28;20205;-71
2023/04/28 08:53:59;;;;;;;3.33;2.37;;;;;;;24.36;23.39;99888.84;5013549;28;20727;-70
2023/04/28 08:56:27;;;;;;;2.47;2.27;;;;;;;24.44;22.79;99895.59;5013293;28;20262;-70
2023/04/28 08:58:54;;;;;;;4.60;2.33;;;;;;;24.41;22.96;99888.84;5013335;28;20280;-71
2023/04/28 09:01:22;;;;;;;5.27;2.27;;;;;;;24.50;23.38;99884.44;5012127;28;20201;-70
2023/04/28 09:03:49;;;;;;;33.37;4.80;;;;;;;25.02;23.47;99884.78;5019236;28;20201;-73
2023/04/28 09:06:16;;;;;;;2.70;1.93;;;;;;;25.30;23.48;99877.84;5032556;28;20255;-74
2023/04/28 09:08:44;;;;;;;8.87;3.00;;;;;;;25.40;22.37;99887.84;5032803;28;20197;-70
2023/04/28 09:11:12;;;;;;;8.87;2.30;;;;;;;25.16;23.36;99884.16;5033496;28;20200;-70
2023/04/28 09:13:40;;;;;;;161.97;14.50;;;;;;;25.56;22.78;99881.22;5026825;28;20963;-70
2023/04/28 09:16:07;;;;;;;7.67;2.33;;;;;;;25.75;22.30;99868.50;5021199;28;20654;-70
2023/04/28 09:18:33;;;;;;;9.23;2.50;;;;;;;26.09;22.96;99869.31;5012876;28;20865;-69
2023/04/28 09:21:05;;;;;;;2.70;1.87;;;;;;;26.47;22.09;99871.91;5013699;28;20198;-71
2023/04/28 09:23:33;;;;;;;29.70;4.30;;;;;;;26.52;21.77;99876.47;5012461;28;20201;-70
2023/04/28 09:26:03;;;;;;;12.10;2.93;;;;;;;25.95;21.43;99879.25;5018952;28;20216;-70
2023/04/28 09:28:30;;;;;;;3.47;2.23;;;;;;;25.74;22.00;99864.16;5023797;28;20245;-72
2023/04/28 09:30:57;;;;;;;5.83;2.27;;;;;;;25.39;22.25;99869.91;5022724;28;20248;-71
2023/04/28 09:33:24;;;;;;;2.60;2.30;;;;;;;25.25;22.25;99860.72;5017613;28;20205;-73
2023/04/28 09:35:51;;;;;;;5.23;2.27;;;;;;;25.24;24.15;99861.81;5013470;28;20289;-69
2023/04/28 09:38:19;;;;;;;5.10;2.40;;;;;;;25.05;23.18;99848.06;5025236;28;20266;-68
2023/04/28 09:40:51;;;;;;;3.13;1.80;;;;;;;25.07;22.44;99856.75;5032810;28;20262;-71
2023/04/28 09:43:30;;;;;;;2.57;2.00;;;;;;;25.08;23.04;99861.13;5032181;28;20228;-70
2023/04/28 09:45:58;;;;;;;4.73;2.00;;;;;;;25.18;22.56;99852.09;5044805;28;20678;-72
2023/04/28 09:48:30;;;;;;;10.77;2.53;;;;;;;25.16;22.60;99851.53;5025713;28;20201;-68
2023/04/28 09:50:58;;;;;;;2.97;1.73;;;;;;;25.34;22.59;99851.72;5032409;28;20205;-66
2023/04/28 09:53:25;;;;;;;16.00;3.00;;;;;;;24.98;22.27;99853.81;5022238;28;20197;-65
2023/04/28 09:55:53;;;;;;;3.70;2.10;;;;;;;25.04;21.82;99851.91;5018170;28;20220;-71
2023/04/28 09:58:21;;;;;;;11.07;2.72;;;;;;;25.20;23.55;99839.00;5019944;28;20449;-67
2023/04/28 10:00:53;;;;;;;3.00;2.23;;;;;;;24.92;22.79;99837.81;5020786;28;20203;-66
2023/04/28 10:03:23;;;;;;;6.93;2.67;;;;;;;24.70;23.14;99840.09;5027027;28;20260;-69
2023/04/28 10:05:52;;;;;;;3.00;2.27;;;;;;;24.43;23.01;99831.53;5023775;28;20701;-65
2023/04/28 10:08:20;;;;;;;15.60;11.53;;;;;;;24.46;23.72;99829.06;5031080;28;20262;-65
2023/04/28 10:10:48;;;;;;;4.43;2.93;;;;;;;24.43;23.35;99817.94;5031679;28;20299;-72
2023/04/28 10:13:16;;;;;;;7.77;2.73;;;;;;;24.25;22.78;99827.50;5030008;28;20195;-67
2023/04/28 10:15:43;;;;;;;2.97;1.90;;;;;;;24.10;22.74;99834.88;5032474;28;20255;-66
2023/04/28 10:18:12;;;;;;;5.80;2.13;;;;;;;24.13;22.72;99820.78;5030682;28;20206;-65
2023/04/28 10:20:42;;;;;;;3.97;2.20;;;;;;;23.74;23.63;99809.69;5031250;28;20386;-67
2023/04/28 10:23:30;;;;;;;2.50;2.40;;;;;;;23.54;23.16;99817.84;5029914;28;20261;-66
2023/04/28 10:25:58;;;;;;;2.77;2.50;;;;;;;23.50;23.50;99811.34;5031992;28;20248;-68
2023/04/28 10:28:26;;;;;;;2.97;2.23;;;;;;;23.57;23.62;99811.06;5030899;28;20226;-66
2023/04/28 10:31:09;;;;;;;3.13;2.60;;;;;;;23.67;24.50;99802.91;5030111;28;20254;-67
2023/04/28 10:33:38;;;;;;;6.77;2.40;;;;;;;23.68;23.72;99799.94;5030124;28;20744;-66
2023/04/28 10:36:06;;;;;;;4.03;2.67;;;;;;;23.71;23.13;99799.38;5031016;28;20229;-71
2023/04/28 10:38:33;;;;;;;9.43;2.40;;;;;;;23.38;23.90;99801.84;5030350;28;20673;-65
2023/04/28 10:41:02;;;;;;;2.63;2.47;;;;;;;22.57;24.36;99803.59;5027702;28;20260;-67
2023/04/28 10:43:39;;;;;;;11.13;2.80;;;;;;;22.51;24.77;99796.56;5020017;28;20202;-67
2023/04/28 10:46:07;;;;;;;8.60;2.57;;;;;;;22.66;24.73;99798.47;5031112;28;20202;-68
2023/04/28 10:48:55;;;;;;;2.42;2.22;;;;;;;22.92;25.89;99790.16;5030733;28;20447;-73
2023/04/28 10:51:32;;;;;;;3.57;2.10;;;;;;;22.88;24.26;99794.47;5015144;28;20209;-70
2023/04/28 10:54:15;;;;;;;5.10;2.40;;;;;;;23.21;26.45;99788.56;5010961;28;20236;-71
2023/04/28 10:57:23;;;;;;;2.33;1.90;;;;;;;23.76;25.66;99780.38;5018349;28;20763;-72
2023/04/28 10:59:50;;;;;;;2.70;2.40;;;;;;;24.18;22.85;99783.53;5023322;28;20207;-66
2023/04/28 11:02:41;;;;;;;2.00;1.57;;;;;;;24.44;23.71;99770.66;5030094;28;20293;-68
2023/04/28 11:05:15;;;;;;;8.50;3.03;;;;;;;24.47;23.22;99775.56;5028967;28;20192;-68
2023/04/28 11:07:41;;;;;;;5.47;3.00;;;;;;;23.84;23.08;99779.81;5023664;28;20196;-67
2023/04/28 11:10:08;;;;;;;5.80;2.60;;;;;;;23.76;25.08;99777.66;5031241;28;20269;-67
2023/04/28 11:12:35;;;;;;;6.37;2.40;;;;;;;23.94;25.11;99782.53;5028956;28;20220;-67
2023/04/28 11:15:13;;;;;;;9.57;2.93;;;;;;;23.49;23.42;99779.88;5029283;28;20283;-66
2023/04/28 11:17:41;;;;;;;4.50;2.27;;;;;;;23.70;24.19;99786.09;5030686;28;20226;-66
2023/04/28 11:20:15;;;;;;;132.83;12.07;;;;;;;23.79;23.24;99770.88;5031214;28;20289;-66
2023/04/28 11:22:42;;;;;;;9.63;2.37;;;;;;;23.73;23.02;99775.50;5030797;28;20184;-71
2023/04/28 11:25:09;;;;;;;7.07;2.63;;;;;;;23.43;23.82;99780.13;5030605;28;20287;-65
2023/04/28 11:27:36;;;;;;;2.87;2.07;;;;;;;23.51;24.32;99769.56;5029110;28;20199;-65
2023/04/28 11:30:04;;;;;;;4.10;2.07;;;;;;;23.52;24.28;99767.69;5030368;28;20239;-65
2023/04/28 11:32:32;;;;;;;5.07;2.20;;;;;;;23.63;23.32;99761.97;5025537;28;20221;-65
2023/04/28 11:34:59;;;;;;;4.57;2.50;;;;;;;23.74;23.16;99760.88;5010360;28;20202;-67